sensor_id;sensor_type;location;lat;lon;timestamp;temperature;humidity
27619;DHT22;15039;50.830;4.730;2022-08-14T00:01:07;22.70;87.00
27619;DHT22;15039;50.830;4.730;2022-08-14T00:03:33;22.60;86.90
27619;DHT22;15039;50.830;4.730;2022-08-14T00:06:00;22.60;87.30
27619;DHT22;15039;50.830;4.730;2022-08-14T00:08:27;22.50;87.80
27619;DHT22;15039;50.830;4.730;2022-08-14T00:10:53;22.50;87.90
27619;DHT22;15039;50.830;4.730;2022-08-14T00:13:20;22.50;88.10
27619;DHT22;15039;50.830;4.730;2022-08-14T00:15:48;22.40;88.40
27619;DHT22;15039;50.830;4.730;2022-08-14T00:18:18;22.30;88.40
27619;DHT22;15039;50.830;4.730;2022-08-14T00:20:44;22.30;88.60
27619;DHT22;15039;50.830;4.730;2022-08-14T00:23:12;22.30;88.40
27619;DHT22;15039;50.830;4.730;2022-08-14T00:25:38;22.40;88.10
27619;DHT22;15039;50.830;4.730;2022-08-14T00:28:08;22.40;88.20
27619;DHT22;15039;50.830;4.730;2022-08-14T00:30:34;22.30;87.80
27619;DHT22;15039;50.830;4.730;2022-08-14T00:33:00;22.30;87.90
27619;DHT22;15039;50.830;4.730;2022-08-14T00:35:25;22.20;88.40
27619;DHT22;15039;50.830;4.730;2022-08-14T00:37:51;22.10;88.90
27619;DHT22;15039;50.830;4.730;2022-08-14T00:40:18;22.00;88.70
27619;DHT22;15039;50.830;4.730;2022-08-14T00:42:44;21.90;89.60
27619;DHT22;15039;50.830;4.730;2022-08-14T00:45:12;22.00;89.60
27619;DHT22;15039;50.830;4.730;2022-08-14T00:47:40;21.90;89.60
27619;DHT22;15039;50.830;4.730;2022-08-14T00:50:08;21.80;89.90
27619;DHT22;15039;50.830;4.730;2022-08-14T00:52:34;21.80;90.00
27619;DHT22;15039;50.830;4.730;2022-08-14T00:55:00;21.80;90.20
27619;DHT22;15039;50.830;4.730;2022-08-14T00:57:29;21.70;90.30
27619;DHT22;15039;50.830;4.730;2022-08-14T00:59:56;21.60;90.40
27619;DHT22;15039;50.830;4.730;2022-08-14T01:02:23;21.60;90.40
27619;DHT22;15039;50.830;4.730;2022-08-14T01:04:51;21.50;90.50
27619;DHT22;15039;50.830;4.730;2022-08-14T01:07:18;21.50;90.50
27619;DHT22;15039;50.830;4.730;2022-08-14T01:09:57;21.50;90.60
27619;DHT22;15039;50.830;4.730;2022-08-14T01:12:25;21.30;90.80
27619;DHT22;15039;50.830;4.730;2022-08-14T01:14:50;21.30;90.90
27619;DHT22;15039;50.830;4.730;2022-08-14T01:17:21;21.20;90.80
27619;DHT22;15039;50.830;4.730;2022-08-14T01:19:48;21.20;91.00
27619;DHT22;15039;50.830;4.730;2022-08-14T01:22:32;21.00;91.20
27619;DHT22;15039;50.830;4.730;2022-08-14T01:24:59;21.00;91.30
27619;DHT22;15039;50.830;4.730;2022-08-14T01:27:25;20.90;91.30
27619;DHT22;15039;50.830;4.730;2022-08-14T01:29:54;20.90;91.20
27619;DHT22;15039;50.830;4.730;2022-08-14T01:32:21;21.00;90.90
27619;DHT22;15039;50.830;4.730;2022-08-14T01:34:54;21.00;90.80
27619;DHT22;15039;50.830;4.730;2022-08-14T01:37:21;21.00;91.00
27619;DHT22;15039;50.830;4.730;2022-08-14T01:39:48;21.00;91.20
27619;DHT22;15039;50.830;4.730;2022-08-14T01:42:13;20.90;91.10
27619;DHT22;15039;50.830;4.730;2022-08-14T01:44:39;20.90;91.00
27619;DHT22;15039;50.830;4.730;2022-08-14T01:47:08;20.90;90.80
27619;DHT22;15039;50.830;4.730;2022-08-14T01:49:36;20.90;90.80
27619;DHT22;15039;50.830;4.730;2022-08-14T01:52:03;20.80;91.00
27619;DHT22;15039;50.830;4.730;2022-08-14T01:54:28;20.70;91.10
27619;DHT22;15039;50.830;4.730;2022-08-14T01:56:56;20.70;91.10
27619;DHT22;15039;50.830;4.730;2022-08-14T01:59:31;20.70;91.40
27619;DHT22;15039;50.830;4.730;2022-08-14T02:02:02;20.70;91.50
27619;DHT22;15039;50.830;4.730;2022-08-14T02:04:34;20.60;91.50
27619;DHT22;15039;50.830;4.730;2022-08-14T02:07:00;20.60;91.60
27619;DHT22;15039;50.830;4.730;2022-08-14T02:09:28;20.50;91.70
27619;DHT22;15039;50.830;4.730;2022-08-14T02:11:58;20.40;91.90
27619;DHT22;15039;50.830;4.730;2022-08-14T02:14:23;20.30;92.10
27619;DHT22;15039;50.830;4.730;2022-08-14T02:16:50;20.20;92.30
27619;DHT22;15039;50.830;4.730;2022-08-14T02:19:22;20.20;92.40
27619;DHT22;15039;50.830;4.730;2022-08-14T02:21:51;20.10;92.50
27619;DHT22;15039;50.830;4.730;2022-08-14T02:24:20;20.10;92.60
27619;DHT22;15039;50.830;4.730;2022-08-14T02:26:49;20.10;92.60
27619;DHT22;15039;50.830;4.730;2022-08-14T02:29:19;20.00;92.80
27619;DHT22;15039;50.830;4.730;2022-08-14T02:31:48;20.00;93.00
27619;DHT22;15039;50.830;4.730;2022-08-14T02:34:18;19.90;93.00
27619;DHT22;15039;50.830;4.730;2022-08-14T02:36:46;19.90;93.10
27619;DHT22;15039;50.830;4.730;2022-08-14T02:39:13;19.90;93.10
27619;DHT22;15039;50.830;4.730;2022-08-14T02:41:40;19.90;93.10
27619;DHT22;15039;50.830;4.730;2022-08-14T02:44:09;19.80;93.00
27619;DHT22;15039;50.830;4.730;2022-08-14T02:46:39;19.80;93.10
27619;DHT22;15039;50.830;4.730;2022-08-14T02:49:09;19.70;93.00
27619;DHT22;15039;50.830;4.730;2022-08-14T02:51:36;19.70;92.90
27619;DHT22;15039;50.830;4.730;2022-08-14T02:54:03;19.60;93.20
27619;DHT22;15039;50.830;4.730;2022-08-14T02:56:29;19.60;93.40
27619;DHT22;15039;50.830;4.730;2022-08-14T02:58:55;19.50;93.40
27619;DHT22;15039;50.830;4.730;2022-08-14T03:01:23;19.40;93.40
27619;DHT22;15039;50.830;4.730;2022-08-14T03:03:50;19.50;93.40
27619;DHT22;15039;50.830;4.730;2022-08-14T03:06:17;19.50;93.30
27619;DHT22;15039;50.830;4.730;2022-08-14T03:08:45;19.40;93.40
27619;DHT22;15039;50.830;4.730;2022-08-14T03:11:12;19.40;93.60
27619;DHT22;15039;50.830;4.730;2022-08-14T03:13:43;19.30;93.70
27619;DHT22;15039;50.830;4.730;2022-08-14T03:16:15;19.30;93.80
27619;DHT22;15039;50.830;4.730;2022-08-14T03:18:43;19.30;93.80
27619;DHT22;15039;50.830;4.730;2022-08-14T03:21:12;19.20;93.90
27619;DHT22;15039;50.830;4.730;2022-08-14T03:23:49;19.10;93.80
27619;DHT22;15039;50.830;4.730;2022-08-14T03:26:18;19.20;93.80
27619;DHT22;15039;50.830;4.730;2022-08-14T03:28:47;19.10;94.00
27619;DHT22;15039;50.830;4.730;2022-08-14T03:31:13;19.00;94.10
27619;DHT22;15039;50.830;4.730;2022-08-14T03:33:43;19.00;94.10
27619;DHT22;15039;50.830;4.730;2022-08-14T03:36:13;19.10;93.90
27619;DHT22;15039;50.830;4.730;2022-08-14T03:38:42;19.10;93.50
27619;DHT22;15039;50.830;4.730;2022-08-14T03:41:09;19.20;93.30
27619;DHT22;15039;50.830;4.730;2022-08-14T03:43:39;19.10;93.60
27619;DHT22;15039;50.830;4.730;2022-08-14T03:46:05;19.10;93.60
27619;DHT22;15039;50.830;4.730;2022-08-14T03:48:31;18.90;93.70
27619;DHT22;15039;50.830;4.730;2022-08-14T03:50:57;18.90;93.70
27619;DHT22;15039;50.830;4.730;2022-08-14T03:53:24;18.80;93.90
27619;DHT22;15039;50.830;4.730;2022-08-14T03:55:49;18.80;93.90
27619;DHT22;15039;50.830;4.730;2022-08-14T03:58:15;18.80;93.90
27619;DHT22;15039;50.830;4.730;2022-08-14T04:00:41;18.80;94.00
27619;DHT22;15039;50.830;4.730;2022-08-14T04:03:11;18.80;94.10
27619;DHT22;15039;50.830;4.730;2022-08-14T04:05:36;18.70;94.30
27619;DHT22;15039;50.830;4.730;2022-08-14T04:08:07;18.70;93.90
27619;DHT22;15039;50.830;4.730;2022-08-14T04:10:33;18.70;94.00
27619;DHT22;15039;50.830;4.730;2022-08-14T04:13:00;18.70;93.90
27619;DHT22;15039;50.830;4.730;2022-08-14T04:15:26;18.70;93.90
27619;DHT22;15039;50.830;4.730;2022-08-14T04:17:52;18.70;94.10
27619;DHT22;15039;50.830;4.730;2022-08-14T04:20:19;18.90;93.80
27619;DHT22;15039;50.830;4.730;2022-08-14T04:22:45;18.90;93.70
27619;DHT22;15039;50.830;4.730;2022-08-14T04:25:11;18.80;94.00
27619;DHT22;15039;50.830;4.730;2022-08-14T04:27:37;18.80;94.10
27619;DHT22;15039;50.830;4.730;2022-08-14T04:30:04;18.70;94.40
27619;DHT22;15039;50.830;4.730;2022-08-14T04:32:31;18.70;94.50
27619;DHT22;15039;50.830;4.730;2022-08-14T04:34:59;18.70;94.50
27619;DHT22;15039;50.830;4.730;2022-08-14T04:37:25;18.90;94.30
27619;DHT22;15039;50.830;4.730;2022-08-14T04:40:10;18.90;94.40
27619;DHT22;15039;50.830;4.730;2022-08-14T04:42:55;19.00;94.50
27619;DHT22;15039;50.830;4.730;2022-08-14T04:45:39;18.90;94.40
27619;DHT22;15039;50.830;4.730;2022-08-14T04:48:10;18.80;94.40
27619;DHT22;15039;50.830;4.730;2022-08-14T04:50:44;18.90;94.30
27619;DHT22;15039;50.830;4.730;2022-08-14T04:53:13;18.90;94.20
27619;DHT22;15039;50.830;4.730;2022-08-14T04:55:40;18.80;94.30
27619;DHT22;15039;50.830;4.730;2022-08-14T04:58:07;18.90;94.00
27619;DHT22;15039;50.830;4.730;2022-08-14T05:00:34;19.00;93.80
27619;DHT22;15039;50.830;4.730;2022-08-14T05:03:00;19.10;93.80
27619;DHT22;15039;50.830;4.730;2022-08-14T05:05:28;19.00;93.80
27619;DHT22;15039;50.830;4.730;2022-08-14T05:07:54;19.00;93.90
27619;DHT22;15039;50.830;4.730;2022-08-14T05:10:20;19.10;93.50
27619;DHT22;15039;50.830;4.730;2022-08-14T05:12:50;19.20;93.40
27619;DHT22;15039;50.830;4.730;2022-08-14T05:15:17;19.20;93.40
27619;DHT22;15039;50.830;4.730;2022-08-14T05:17:45;19.10;93.50
27619;DHT22;15039;50.830;4.730;2022-08-14T05:20:11;19.10;93.50
27619;DHT22;15039;50.830;4.730;2022-08-14T05:22:37;19.20;93.40
27619;DHT22;15039;50.830;4.730;2022-08-14T05:25:03;19.20;93.30
27619;DHT22;15039;50.830;4.730;2022-08-14T05:27:29;19.30;93.20
27619;DHT22;15039;50.830;4.730;2022-08-14T05:29:55;19.40;93.00
27619;DHT22;15039;50.830;4.730;2022-08-14T05:32:21;19.50;93.10
27619;DHT22;15039;50.830;4.730;2022-08-14T05:34:47;19.50;93.00
27619;DHT22;15039;50.830;4.730;2022-08-14T05:37:13;19.50;93.20
27619;DHT22;15039;50.830;4.730;2022-08-14T05:39:39;19.70;93.00
27619;DHT22;15039;50.830;4.730;2022-08-14T05:42:06;19.80;92.90
27619;DHT22;15039;50.830;4.730;2022-08-14T05:44:32;19.80;92.90
27619;DHT22;15039;50.830;4.730;2022-08-14T05:46:58;19.80;92.90
27619;DHT22;15039;50.830;4.730;2022-08-14T05:49:24;19.90;92.80
27619;DHT22;15039;50.830;4.730;2022-08-14T05:51:50;20.00;92.60
27619;DHT22;15039;50.830;4.730;2022-08-14T05:54:15;20.00;92.60
27619;DHT22;15039;50.830;4.730;2022-08-14T05:56:43;20.20;92.10
27619;DHT22;15039;50.830;4.730;2022-08-14T05:59:10;20.40;91.90
27619;DHT22;15039;50.830;4.730;2022-08-14T06:01:36;20.50;91.70
27619;DHT22;15039;50.830;4.730;2022-08-14T06:04:02;20.70;91.60
27619;DHT22;15039;50.830;4.730;2022-08-14T06:06:28;20.80;91.50
27619;DHT22;15039;50.830;4.730;2022-08-14T06:08:53;21.00;91.30
27619;DHT22;15039;50.830;4.730;2022-08-14T06:11:19;21.20;91.00
27619;DHT22;15039;50.830;4.730;2022-08-14T06:13:45;21.50;90.70
27619;DHT22;15039;50.830;4.730;2022-08-14T06:16:11;21.80;90.40
27619;DHT22;15039;50.830;4.730;2022-08-14T06:18:36;22.20;90.00
27619;DHT22;15039;50.830;4.730;2022-08-14T06:21:03;22.40;89.60
27619;DHT22;15039;50.830;4.730;2022-08-14T06:23:29;22.60;88.90
27619;DHT22;15039;50.830;4.730;2022-08-14T06:25:55;22.60;89.20
27619;DHT22;15039;50.830;4.730;2022-08-14T06:28:22;22.60;89.30
27619;DHT22;15039;50.830;4.730;2022-08-14T06:30:49;22.60;89.60
27619;DHT22;15039;50.830;4.730;2022-08-14T06:33:16;22.60;89.30
27619;DHT22;15039;50.830;4.730;2022-08-14T06:35:43;22.60;90.00
27619;DHT22;15039;50.830;4.730;2022-08-14T06:38:14;22.70;89.80
27619;DHT22;15039;50.830;4.730;2022-08-14T06:40:40;22.80;89.80
27619;DHT22;15039;50.830;4.730;2022-08-14T06:43:08;22.90;88.20
27619;DHT22;15039;50.830;4.730;2022-08-14T06:45:36;23.00;88.70
27619;DHT22;15039;50.830;4.730;2022-08-14T06:48:03;23.00;88.50
27619;DHT22;15039;50.830;4.730;2022-08-14T06:50:30;23.00;87.90
27619;DHT22;15039;50.830;4.730;2022-08-14T06:52:58;23.20;88.50
27619;DHT22;15039;50.830;4.730;2022-08-14T06:55:24;23.30;88.50
27619;DHT22;15039;50.830;4.730;2022-08-14T06:57:50;23.30;88.50
27619;DHT22;15039;50.830;4.730;2022-08-14T07:00:20;23.30;88.70
27619;DHT22;15039;50.830;4.730;2022-08-14T07:02:46;23.50;88.30
27619;DHT22;15039;50.830;4.730;2022-08-14T07:05:31;23.60;87.40
27619;DHT22;15039;50.830;4.730;2022-08-14T07:08:27;23.70;86.50
27619;DHT22;15039;50.830;4.730;2022-08-14T07:10:56;23.80;86.70
27619;DHT22;15039;50.830;4.730;2022-08-14T07:13:22;23.80;86.20
27619;DHT22;15039;50.830;4.730;2022-08-14T07:15:51;23.90;86.30
27619;DHT22;15039;50.830;4.730;2022-08-14T07:18:25;23.80;86.90
27619;DHT22;15039;50.830;4.730;2022-08-14T07:20:52;24.00;86.70
27619;DHT22;15039;50.830;4.730;2022-08-14T07:23:18;24.10;85.80
27619;DHT22;15039;50.830;4.730;2022-08-14T07:25:46;24.30;85.80
27619;DHT22;15039;50.830;4.730;2022-08-14T07:28:17;24.50;87.90
27619;DHT22;15039;50.830;4.730;2022-08-14T07:30:43;24.90;87.10
27619;DHT22;15039;50.830;4.730;2022-08-14T07:33:09;25.10;86.40
27619;DHT22;15039;50.830;4.730;2022-08-14T07:35:36;25.10;85.70
27619;DHT22;15039;50.830;4.730;2022-08-14T07:38:05;25.10;85.50
27619;DHT22;15039;50.830;4.730;2022-08-14T07:40:31;25.20;86.00
27619;DHT22;15039;50.830;4.730;2022-08-14T07:42:57;25.30;85.30
27619;DHT22;15039;50.830;4.730;2022-08-14T07:45:23;25.30;85.30
27619;DHT22;15039;50.830;4.730;2022-08-14T07:47:49;25.40;85.10
27619;DHT22;15039;50.830;4.730;2022-08-14T07:50:17;25.50;85.50
27619;DHT22;15039;50.830;4.730;2022-08-14T07:52:45;25.70;85.20
27619;DHT22;15039;50.830;4.730;2022-08-14T07:55:12;25.80;84.90
27619;DHT22;15039;50.830;4.730;2022-08-14T07:57:39;26.00;83.90
27619;DHT22;15039;50.830;4.730;2022-08-14T08:00:13;26.10;85.00
27619;DHT22;15039;50.830;4.730;2022-08-14T08:02:42;26.00;85.00
27619;DHT22;15039;50.830;4.730;2022-08-14T08:05:10;26.00;84.00
27619;DHT22;15039;50.830;4.730;2022-08-14T08:07:37;26.20;83.70
27619;DHT22;15039;50.830;4.730;2022-08-14T08:12:55;26.20;83.90
27619;DHT22;15039;50.830;4.730;2022-08-14T08:15:23;26.30;84.60
27619;DHT22;15039;50.830;4.730;2022-08-14T08:17:48;26.50;84.30
27619;DHT22;15039;50.830;4.730;2022-08-14T08:20:24;26.60;83.40
27619;DHT22;15039;50.830;4.730;2022-08-14T08:22:51;26.80;83.60
27619;DHT22;15039;50.830;4.730;2022-08-14T08:25:19;27.00;83.70
27619;DHT22;15039;50.830;4.730;2022-08-14T08:28:02;27.20;83.50
27619;DHT22;15039;50.830;4.730;2022-08-14T08:30:31;27.40;83.40
27619;DHT22;15039;50.830;4.730;2022-08-14T08:32:59;27.60;82.80
27619;DHT22;15039;50.830;4.730;2022-08-14T08:35:31;27.70;82.60
27619;DHT22;15039;50.830;4.730;2022-08-14T08:38:09;27.90;82.50
27619;DHT22;15039;50.830;4.730;2022-08-14T08:40:38;28.00;82.60
27619;DHT22;15039;50.830;4.730;2022-08-14T08:43:06;28.00;82.70
27619;DHT22;15039;50.830;4.730;2022-08-14T08:45:34;28.10;82.80
27619;DHT22;15039;50.830;4.730;2022-08-14T08:48:00;28.20;83.00
27619;DHT22;15039;50.830;4.730;2022-08-14T08:50:31;28.40;82.70
27619;DHT22;15039;50.830;4.730;2022-08-14T08:53:03;28.70;82.30
27619;DHT22;15039;50.830;4.730;2022-08-14T08:55:40;28.70;82.50
27619;DHT22;15039;50.830;4.730;2022-08-14T08:58:08;28.70;82.00
27619;DHT22;15039;50.830;4.730;2022-08-14T09:00:37;28.80;81.50
27619;DHT22;15039;50.830;4.730;2022-08-14T09:03:10;28.90;80.30
27619;DHT22;15039;50.830;4.730;2022-08-14T09:05:52;29.20;79.10
27619;DHT22;15039;50.830;4.730;2022-08-14T09:08:29;29.30;78.90
27619;DHT22;15039;50.830;4.730;2022-08-14T09:10:56;29.50;78.00
27619;DHT22;15039;50.830;4.730;2022-08-14T09:13:24;29.50;78.60
27619;DHT22;15039;50.830;4.730;2022-08-14T09:15:51;29.70;77.60
27619;DHT22;15039;50.830;4.730;2022-08-14T09:18:19;29.90;78.40
27619;DHT22;15039;50.830;4.730;2022-08-14T09:20:47;30.10;76.90
27619;DHT22;15039;50.830;4.730;2022-08-14T09:23:14;30.40;75.80
27619;DHT22;15039;50.830;4.730;2022-08-14T09:25:41;30.50;75.70
27619;DHT22;15039;50.830;4.730;2022-08-14T09:28:08;30.60;74.70
27619;DHT22;15039;50.830;4.730;2022-08-14T09:30:36;30.80;74.30
27619;DHT22;15039;50.830;4.730;2022-08-14T09:38:37;30.90;71.80
27619;DHT22;15039;50.830;4.730;2022-08-14T09:41:22;31.10;71.60
27619;DHT22;15039;50.830;4.730;2022-08-14T09:46:24;31.40;69.40
27619;DHT22;15039;50.830;4.730;2022-08-14T09:49:03;31.40;69.30
27619;DHT22;15039;50.830;4.730;2022-08-14T09:51:30;31.50;68.40
27619;DHT22;15039;50.830;4.730;2022-08-14T09:54:05;31.50;68.50
27619;DHT22;15039;50.830;4.730;2022-08-14T09:56:45;31.50;68.80
27619;DHT22;15039;50.830;4.730;2022-08-14T09:59:13;31.40;66.70
27619;DHT22;15039;50.830;4.730;2022-08-14T10:01:40;31.50;66.90
27619;DHT22;15039;50.830;4.730;2022-08-14T10:04:18;31.50;68.30
27619;DHT22;15039;50.830;4.730;2022-08-14T10:06:45;31.60;68.50
27619;DHT22;15039;50.830;4.730;2022-08-14T10:09:11;31.90;66.00
27619;DHT22;15039;50.830;4.730;2022-08-14T10:11:38;31.80;64.40
27619;DHT22;15039;50.830;4.730;2022-08-14T10:14:19;31.60;64.70
27619;DHT22;15039;50.830;4.730;2022-08-14T10:16:48;31.60;64.00
27619;DHT22;15039;50.830;4.730;2022-08-14T10:19:18;31.50;64.00
27619;DHT22;15039;50.830;4.730;2022-08-14T10:21:57;31.30;63.70
27619;DHT22;15039;50.830;4.730;2022-08-14T10:24:30;31.30;63.70
27619;DHT22;15039;50.830;4.730;2022-08-14T10:26:58;31.20;63.50
27619;DHT22;15039;50.830;4.730;2022-08-14T10:29:35;31.20;64.40
27619;DHT22;15039;50.830;4.730;2022-08-14T10:32:06;31.20;63.60
27619;DHT22;15039;50.830;4.730;2022-08-14T10:34:36;31.10;63.30
27619;DHT22;15039;50.830;4.730;2022-08-14T10:37:14;31.30;63.60
27619;DHT22;15039;50.830;4.730;2022-08-14T10:39:43;31.50;63.00
27619;DHT22;15039;50.830;4.730;2022-08-14T10:42:11;31.60;62.90
27619;DHT22;15039;50.830;4.730;2022-08-14T10:44:42;31.80;62.80
27619;DHT22;15039;50.830;4.730;2022-08-14T10:47:11;32.00;62.30
27619;DHT22;15039;50.830;4.730;2022-08-14T10:50:01;31.90;60.70
27619;DHT22;15039;50.830;4.730;2022-08-14T10:52:28;31.80;61.00
27619;DHT22;15039;50.830;4.730;2022-08-14T10:55:12;31.60;61.30
27619;DHT22;15039;50.830;4.730;2022-08-14T10:57:49;31.40;61.90
27619;DHT22;15039;50.830;4.730;2022-08-14T11:00:19;31.10;61.70
27619;DHT22;15039;50.830;4.730;2022-08-14T11:02:58;30.90;62.90
27619;DHT22;15039;50.830;4.730;2022-08-14T11:05:36;30.80;62.80
27619;DHT22;15039;50.830;4.730;2022-08-14T11:08:02;30.80;63.20
27619;DHT22;15039;50.830;4.730;2022-08-14T11:10:54;30.80;63.70
27619;DHT22;15039;50.830;4.730;2022-08-14T11:13:23;30.90;62.80
27619;DHT22;15039;50.830;4.730;2022-08-14T11:15:49;31.10;63.30
27619;DHT22;15039;50.830;4.730;2022-08-14T11:18:16;31.20;62.90
27619;DHT22;15039;50.830;4.730;2022-08-14T11:20:52;31.40;62.00
27619;DHT22;15039;50.830;4.730;2022-08-14T11:23:32;31.60;62.30
27619;DHT22;15039;50.830;4.730;2022-08-14T11:25:59;31.80;62.40
27619;DHT22;15039;50.830;4.730;2022-08-14T11:28:28;31.90;60.30
27619;DHT22;15039;50.830;4.730;2022-08-14T11:30:58;32.00;60.60
27619;DHT22;15039;50.830;4.730;2022-08-14T11:33:26;32.10;61.30
27619;DHT22;15039;50.830;4.730;2022-08-14T11:35:56;32.20;59.80
27619;DHT22;15039;50.830;4.730;2022-08-14T11:38:23;32.10;60.00
27619;DHT22;15039;50.830;4.730;2022-08-14T11:40:50;32.10;60.80
27619;DHT22;15039;50.830;4.730;2022-08-14T11:43:16;32.20;60.40
27619;DHT22;15039;50.830;4.730;2022-08-14T11:45:45;32.30;59.10
27619;DHT22;15039;50.830;4.730;2022-08-14T11:48:16;32.20;59.00
27619;DHT22;15039;50.830;4.730;2022-08-14T11:50:43;32.10;59.70
27619;DHT22;15039;50.830;4.730;2022-08-14T11:53:28;32.30;59.80
27619;DHT22;15039;50.830;4.730;2022-08-14T11:56:02;32.30;59.30
27619;DHT22;15039;50.830;4.730;2022-08-14T11:58:33;32.30;60.10
27619;DHT22;15039;50.830;4.730;2022-08-14T12:01:08;32.30;59.70
27619;DHT22;15039;50.830;4.730;2022-08-14T12:06:11;32.50;60.20
27619;DHT22;15039;50.830;4.730;2022-08-14T12:08:37;32.50;60.00
27619;DHT22;15039;50.830;4.730;2022-08-14T12:11:05;32.50;60.50
27619;DHT22;15039;50.830;4.730;2022-08-14T12:13:31;32.60;60.60
27619;DHT22;15039;50.830;4.730;2022-08-14T12:16:02;32.50;60.70
27619;DHT22;15039;50.830;4.730;2022-08-14T12:18:36;32.50;60.20
27619;DHT22;15039;50.830;4.730;2022-08-14T12:23:38;32.40;60.40
27619;DHT22;15039;50.830;4.730;2022-08-14T12:26:06;32.50;61.00
27619;DHT22;15039;50.830;4.730;2022-08-14T12:28:32;32.50;61.20
27619;DHT22;15039;50.830;4.730;2022-08-14T12:30:58;32.70;61.60
27619;DHT22;15039;50.830;4.730;2022-08-14T12:33:30;32.80;61.40
27619;DHT22;15039;50.830;4.730;2022-08-14T12:36:03;32.70;61.50
27619;DHT22;15039;50.830;4.730;2022-08-14T12:38:37;32.60;61.00
27619;DHT22;15039;50.830;4.730;2022-08-14T12:41:20;32.80;60.90
27619;DHT22;15039;50.830;4.730;2022-08-14T12:46:35;32.80;61.30
27619;DHT22;15039;50.830;4.730;2022-08-14T12:49:11;32.70;60.70
27619;DHT22;15039;50.830;4.730;2022-08-14T12:51:38;32.70;61.00
27619;DHT22;15039;50.830;4.730;2022-08-14T12:54:18;32.90;61.60
27619;DHT22;15039;50.830;4.730;2022-08-14T12:56:46;33.10;60.80
27619;DHT22;15039;50.830;4.730;2022-08-14T12:59:12;33.30;61.20
27619;DHT22;15039;50.830;4.730;2022-08-14T13:01:39;33.30;60.60
27619;DHT22;15039;50.830;4.730;2022-08-14T13:04:15;33.50;60.20
27619;DHT22;15039;50.830;4.730;2022-08-14T13:06:43;33.70;60.70
27619;DHT22;15039;50.830;4.730;2022-08-14T13:09:15;33.80;60.20
27619;DHT22;15039;50.830;4.730;2022-08-14T13:11:49;33.90;60.20
27619;DHT22;15039;50.830;4.730;2022-08-14T13:14:18;33.90;59.90
27619;DHT22;15039;50.830;4.730;2022-08-14T13:16:54;33.80;59.00
27619;DHT22;15039;50.830;4.730;2022-08-14T13:19:21;33.90;59.30
27619;DHT22;15039;50.830;4.730;2022-08-14T13:21:50;34.00;59.80
27619;DHT22;15039;50.830;4.730;2022-08-14T13:24:18;34.20;59.30
27619;DHT22;15039;50.830;4.730;2022-08-14T13:26:49;34.20;58.50
27619;DHT22;15039;50.830;4.730;2022-08-14T13:29:20;34.30;58.80
27619;DHT22;15039;50.830;4.730;2022-08-14T13:31:49;34.50;58.90
27619;DHT22;15039;50.830;4.730;2022-08-14T13:34:28;34.60;58.20
27619;DHT22;15039;50.830;4.730;2022-08-14T13:36:55;34.60;57.90
27619;DHT22;15039;50.830;4.730;2022-08-14T13:39:25;34.50;57.50
27619;DHT22;15039;50.830;4.730;2022-08-14T13:41:51;34.40;57.30
27619;DHT22;15039;50.830;4.730;2022-08-14T13:44:18;34.20;57.60
27619;DHT22;15039;50.830;4.730;2022-08-14T13:46:46;34.20;58.10
27619;DHT22;15039;50.830;4.730;2022-08-14T13:49:13;34.10;57.80
27619;DHT22;15039;50.830;4.730;2022-08-14T13:51:42;34.10;58.70
27619;DHT22;15039;50.830;4.730;2022-08-14T13:54:17;34.20;58.40
27619;DHT22;15039;50.830;4.730;2022-08-14T13:56:46;34.50;58.60
27619;DHT22;15039;50.830;4.730;2022-08-14T13:59:12;34.60;57.30
27619;DHT22;15039;50.830;4.730;2022-08-14T14:01:39;34.60;58.00
27619;DHT22;15039;50.830;4.730;2022-08-14T14:04:13;34.60;57.30
27619;DHT22;15039;50.830;4.730;2022-08-14T14:06:39;34.50;57.40
27619;DHT22;15039;50.830;4.730;2022-08-14T14:09:09;34.50;58.10
27619;DHT22;15039;50.830;4.730;2022-08-14T14:11:35;34.50;57.10
27619;DHT22;15039;50.830;4.730;2022-08-14T14:14:02;34.50;57.30
27619;DHT22;15039;50.830;4.730;2022-08-14T14:16:28;34.40;57.30
27619;DHT22;15039;50.830;4.730;2022-08-14T14:18:55;34.40;57.70
27619;DHT22;15039;50.830;4.730;2022-08-14T14:21:25;34.50;58.10
27619;DHT22;15039;50.830;4.730;2022-08-14T14:23:52;34.50;57.80
27619;DHT22;15039;50.830;4.730;2022-08-14T14:26:19;34.60;57.90
27619;DHT22;15039;50.830;4.730;2022-08-14T14:28:51;34.80;57.50
27619;DHT22;15039;50.830;4.730;2022-08-14T14:31:21;34.80;57.80
27619;DHT22;15039;50.830;4.730;2022-08-14T14:33:50;34.80;57.80
27619;DHT22;15039;50.830;4.730;2022-08-14T14:36:21;34.70;57.50
27619;DHT22;15039;50.830;4.730;2022-08-14T14:39:26;34.70;57.50
27619;DHT22;15039;50.830;4.730;2022-08-14T14:41:49;34.70;58.10
27619;DHT22;15039;50.830;4.730;2022-08-14T14:44:19;34.90;57.90
27619;DHT22;15039;50.830;4.730;2022-08-14T14:46:47;35.10;57.60
27619;DHT22;15039;50.830;4.730;2022-08-14T14:49:14;35.30;57.80
27619;DHT22;15039;50.830;4.730;2022-08-14T14:51:42;35.40;57.40
27619;DHT22;15039;50.830;4.730;2022-08-14T14:54:10;35.50;57.70
27619;DHT22;15039;50.830;4.730;2022-08-14T14:56:39;35.60;57.80
27619;DHT22;15039;50.830;4.730;2022-08-14T14:59:06;35.50;57.50
27619;DHT22;15039;50.830;4.730;2022-08-14T15:01:35;35.50;57.90
27619;DHT22;15039;50.830;4.730;2022-08-14T15:04:00;35.50;58.10
27619;DHT22;15039;50.830;4.730;2022-08-14T15:06:28;35.60;57.40
27619;DHT22;15039;50.830;4.730;2022-08-14T15:08:56;35.30;58.10
27619;DHT22;15039;50.830;4.730;2022-08-14T15:11:22;35.30;58.00
27619;DHT22;15039;50.830;4.730;2022-08-14T15:13:48;35.20;56.90
27619;DHT22;15039;50.830;4.730;2022-08-14T15:16:13;35.10;57.40
27619;DHT22;15039;50.830;4.730;2022-08-14T15:18:41;35.10;58.00
27619;DHT22;15039;50.830;4.730;2022-08-14T15:21:08;35.10;57.90
27619;DHT22;15039;50.830;4.730;2022-08-14T15:23:33;35.10;58.00
27619;DHT22;15039;50.830;4.730;2022-08-14T15:25:59;35.00;57.70
27619;DHT22;15039;50.830;4.730;2022-08-14T15:28:25;34.90;57.50
27619;DHT22;15039;50.830;4.730;2022-08-14T15:30:51;34.80;57.70
27619;DHT22;15039;50.830;4.730;2022-08-14T15:33:17;34.80;58.50
27619;DHT22;15039;50.830;4.730;2022-08-14T15:36:06;34.90;58.50
27619;DHT22;15039;50.830;4.730;2022-08-14T15:38:31;34.90;58.10
27619;DHT22;15039;50.830;4.730;2022-08-14T15:40:57;34.90;58.30
27619;DHT22;15039;50.830;4.730;2022-08-14T15:43:26;34.90;58.50
27619;DHT22;15039;50.830;4.730;2022-08-14T15:45:53;34.80;58.00
27619;DHT22;15039;50.830;4.730;2022-08-14T15:48:18;34.80;58.50
27619;DHT22;15039;50.830;4.730;2022-08-14T15:50:44;34.70;58.80
27619;DHT22;15039;50.830;4.730;2022-08-14T15:53:09;34.70;58.90
27619;DHT22;15039;50.830;4.730;2022-08-14T15:55:35;34.60;59.40
27619;DHT22;15039;50.830;4.730;2022-08-14T15:58:04;34.60;59.70
27619;DHT22;15039;50.830;4.730;2022-08-14T16:00:30;34.60;59.10